Terminal Aerodrome Forecast
Issued by NWS Melbourne, FL

Home | Current Version | Previous Version | Text Only | Print | Product List | Glossary On
Versions: 1 2 3 4 5 6 7 8 9 10 11 12 13 14 15 16 17 18
920
FTUS42 KMLB 162343
TAFVRB
TAF
KVRB 162343Z 1700/1724 VRB02KT P6SM SCT250
     FM171500 01009KT P6SM VCSH SCT025 BKN060
      TEMPO 1715/1718 5SM SHRA BKN025=

USA.gov is the U.S. government's official web portal to all federal, state and local government web resources and services.